x

La Have Bank (44150) Wave Buoy

8:00am - Tue 24th May 2016 All times are ADT. -3 hours from GMT.

  • Sig Wave height 5.2ft
  • Peak Period 10s
  • Wind
    11mph, 13mph gusts
  • Sea Temp 51°f
  • Air Temp 55°f
  • Sea Pressure 1016.1mb
  • La Have Bank
  • La Have Bank

More Historic Weather Station data

Upgrade to MSW Pro to gain access to the past 30 days of data for over 8000 Wavebouys and Weather Stations around the globe.

Join Pro

Comparision Forecast

View Surf forecast
   
Tue 05/24 8:00am 5ft 10s 11 13 mph 1016.1mb 51f 55f
7:00am 5.5ft 9s 11 13 mph 1015.9mb 51f 56f
6:00am 5ft 8s 7 9 mph 1016.2mb 51f 54f
5:00am 5.5ft 9s 11 13 mph 1016mb 51f 51f
4:00am 5ft 9s 11 13 mph 1015.7mb 51f 49f
3:00am 4.5ft 10s 9 11 mph 1015.6mb 50f 49f
2:00am 4.5ft 9s 4 7 mph 1015.7mb 45f 46f
1:00am 5ft 9s 4 7 mph 1016.2mb 45f 47f
12:00am 5ft 8s 7
mph
1016.1mb 46f 47f
Mon 05/23 11:00pm 5.5ft 10s 2 4 mph 1015.9mb 50f 49f
10:00pm 5ft 10s 2 4 mph 1015.3mb 50f 51f
9:00pm 6.5ft 8s 2
mph
1014.7mb 50f 51f
8:00pm 7ft 9s 7 9 mph 1014.6mb 51f 51f
7:00pm 7ft 9s 11 13 mph 1014mb 51f 51f
6:00pm 7ft 10s 11 13 mph 1013.8mb 51f 51f
5:00pm 7ft 8s 9 13 mph 1013mb 51f 51f
4:00pm 7.5ft 9s 13 18 mph 1013mb 50f 51f
3:00pm 8ft 9s 11 13 mph 1012.8mb 50f 50f
2:00pm 8ft 9s 13 16 mph 1011.9mb 50f 50f
1:00pm 8.5ft 9s 16 18 mph 1011.2mb 50f 49f
12:00pm 8.5ft 10s 16 20 mph 1010.8mb 50f -
11:00am 9ft 10s 13 16 mph 1010.2mb 49f -
10:00am 9.5ft 10s 18 22 mph 1009.2mb 49f -
9:00am 10ft 10s 18 25 mph 1008.2mb 49f -
8:00am 11ft 10s 20 27 mph 1007mb 49f -
7:00am 11ft 11s 20 25 mph 1005.9mb 49f -
6:00am 11.5ft 10s 20 25 mph 1005.3mb 49f -
5:00am 12ft 11s 20 27 mph 1004.4mb 49f -
4:00am 13ft 11s 20 25 mph 1003.6mb 49f -
3:00am 11ft 11s 18 22 mph 1003.3mb 49f -
2:00am 13ft 10s 20 27 mph 1002.6mb 49f -
1:00am 13ft 11s 20 25 mph 1002.4mb 49f -
12:00am 13ft 11s 20 27 mph 1002mb 49f -
Sun 05/22 11:00pm 12.5ft 11s 18 25 mph 1001.9mb 49f -
10:00pm 11.5ft 10s 18 27 mph 1001.9mb 48f -
9:00pm 12.5ft 10s 13 16 mph 1001.8mb 47f -
8:00pm 9.5ft 9s 18 22 mph 1001.7mb 46f -
7:00pm 7ft 6s 16
mph
1002mb 46f -
6:00pm 6.5ft 5s 18 22 mph 1002.8mb 46f -
5:00pm 5ft 8s 22 27 mph 1003.9mb 46f -
4:00pm 5ft 5s 18 31 mph 1006.1mb 46f -
3:00pm  -   -  27
mph
1006.7mb - -
2:00pm 5ft 9s 25 31 mph 1008.4mb 46f -
1:00pm 4ft 9s 27 31 mph 1009.8mb 46f -
11:00am 3ft 10s 20 25 mph 1012.9mb 46f -
10:00am 2.5ft 9s 16 18 mph 1013.8mb 46f -
9:00am 2.5ft 9s 11 13 mph 1015.8mb 46f -
8:00am 2.5ft 9s 7 9 mph 1016.4mb 46f -
7:00am 3ft 9s 4 7 mph 1016.7mb 46f -
6:00am 3ft 9s 2 4 mph 1016.5mb 46f -
5:00am 3ft 8s 7 9 mph 1016.4mb 46f -
4:00am 2.5ft 8s 7 9 mph 1016.9mb 46f -
3:00am 3ft 8s 7
mph
1017.1mb 46f -
2:00am 2.5ft 8s 9
mph
1017.6mb 46f -
1:00am 2.5ft 9s 9
mph
1018.2mb 46f -
12:00am 2.5ft 8s 7
mph
1018.9mb 46f -
Sat 05/21 11:00pm 2.5ft 8s 9
mph
1019.5mb 47f -
10:00pm 2.5ft 9s 9
mph
1019.7mb 46f -
9:00pm 2.5ft 9s 9
mph
1019.3mb 46f -
8:00pm 2.5ft 9s 11 13 mph 1019.5mb 46f -
7:00pm 3ft 8s 11 13 mph 1019.7mb 46f -
6:00pm 3.5ft 8s 13 16 mph 1019.7mb 46f -
5:00pm 3.5ft 8s 13 16 mph 1020mb 47f -
4:00pm 3.5ft 8s 18 20 mph 1020.1mb 47f -
3:00pm 3.5ft 8s 16 20 mph 1020.2mb 46f -
2:00pm 3ft 8s 13 16 mph 1020.4mb 46f -
1:00pm 3ft 9s 13
mph
1020.6mb 45f -
12:00pm 3ft 8s 13 16 mph 1020.7mb 45f -
11:00am 3ft 8s 13 16 mph 1020.7mb 45f -
10:00am 3ft 8s 13 16 mph 1020.7mb 44f -
9:00am 3ft 8s 16 18 mph 1020.7mb 44f -
8:00am 3ft 8s 16 18 mph 1021.1mb 45f -
7:00am 3ft 8s 16 18 mph 1020.6mb 45f -
6:00am 3.5ft 8s 13 18 mph 1020.5mb 46f -
5:00am 3.5ft 8s 18 20 mph 1020.8mb 46f -
4:00am 3.5ft 8s 11 13 mph 1020.4mb 46f -
3:00am 3.5ft 8s 13
mph
1020.3mb 46f -
2:00am 3.5ft 8s 16 18 mph 1020.5mb 46f -
1:00am 3.5ft 9s 13 16 mph 1020.5mb 46f -
12:00am 3.5ft 10s 11 13 mph 1020.7mb 45f -
Fri 05/20 11:00pm 3.5ft 9s 13 16 mph 1020.9mb 45f -
10:00pm 3.5ft 10s 13 16 mph 1020.6mb 46f -
9:00pm 3.5ft 9s 11 13 mph 1020.4mb 46f -
8:00pm 4ft 8s 9 11 mph 1020.1mb 46f -
7:00pm 4ft 9s 9
mph
1020.2mb 47f -
6:00pm 4.5ft 8s 9 11 mph 1020.5mb 48f -
5:00pm 4.5ft 8s 9 11 mph 1020.5mb 47f -
4:00pm 4.5ft 9s 7 9 mph 1020.6mb 47f -
3:00pm 3.5ft 9s 7 9 mph 1020.8mb 47f -
2:00pm 4ft 8s 9 11 mph 1020.7mb 47f -
1:00pm 3.5ft 9s 11 13 mph 1020.7mb 46f -